Terminal Aerodrome Forecast
Issued by NWS

Home | Current Version | Previous Version | Text Only | Print | Product List | Glossary On
Versions: 1 2 3 4 5 6 7 8 9 10 11 12 13 14 15 16 17 18 19 20 21 22 23 24 25 26 27
000
FTUS46 KHNX 261652 AAB
TAFFAT
TAF AMD
KFAT 261652Z 2617/2712 VRB04KT 3SM BR SCT100 OVC150
     FM261900 VRB04KT 4SM BR FEW006 FEW050 BKN120
     FM270500 13005KT 5SM -SHRA SCT030 BKN050=

USA.gov is the U.S. government's official web portal to all federal, state and local government web resources and services.